sensor_id;sensor_type;location;lat;lon;timestamp;P1;durP1;ratioP1;P2;durP2;ratioP2
11187;SDS011;5650;52.700;7.306;2022-07-10T00:00:07;7.70;;;2.17;;
11187;SDS011;5650;52.700;7.306;2022-07-10T00:02:36;7.50;;;1.80;;
11187;SDS011;5650;52.700;7.306;2022-07-10T00:05:07;8.73;;;2.05;;
11187;SDS011;5650;52.700;7.306;2022-07-10T00:07:38;8.65;;;1.83;;
11187;SDS011;5650;52.700;7.306;2022-07-10T00:10:05;6.70;;;2.00;;
11187;SDS011;5650;52.700;7.306;2022-07-10T00:12:36;5.80;;;1.80;;
11187;SDS011;5650;52.700;7.306;2022-07-10T00:15:05;9.25;;;2.35;;
11187;SDS011;5650;52.700;7.306;2022-07-10T00:17:39;6.63;;;1.77;;
11187;SDS011;5650;52.700;7.306;2022-07-10T00:20:13;7.65;;;1.67;;
11187;SDS011;5650;52.700;7.306;2022-07-10T00:22:45;8.00;;;1.92;;
11187;SDS011;5650;52.700;7.306;2022-07-10T00:25:18;4.30;;;1.60;;
11187;SDS011;5650;52.700;7.306;2022-07-10T00:27:49;9.90;;;1.73;;
11187;SDS011;5650;52.700;7.306;2022-07-10T00:30:23;15.07;;;2.47;;
11187;SDS011;5650;52.700;7.306;2022-07-10T00:32:54;6.40;;;1.90;;
11187;SDS011;5650;52.700;7.306;2022-07-10T00:35:21;12.60;;;2.15;;
11187;SDS011;5650;52.700;7.306;2022-07-10T00:37:48;9.55;;;2.08;;
11187;SDS011;5650;52.700;7.306;2022-07-10T00:40:18;14.50;;;2.70;;
11187;SDS011;5650;52.700;7.306;2022-07-10T00:42:54;12.07;;;2.90;;
11187;SDS011;5650;52.700;7.306;2022-07-10T00:45:21;9.15;;;2.55;;
11187;SDS011;5650;52.700;7.306;2022-07-10T00:47:53;6.13;;;1.85;;
11187;SDS011;5650;52.700;7.306;2022-07-10T00:50:32;8.80;;;1.83;;
11187;SDS011;5650;52.700;7.306;2022-07-10T00:53:00;10.70;;;2.30;;
11187;SDS011;5650;52.700;7.306;2022-07-10T00:55:30;13.20;;;2.45;;
11187;SDS011;5650;52.700;7.306;2022-07-10T00:58:04;10.48;;;2.08;;
11187;SDS011;5650;52.700;7.306;2022-07-10T01:00:34;8.02;;;2.08;;
11187;SDS011;5650;52.700;7.306;2022-07-10T01:03:03;10.05;;;2.20;;
11187;SDS011;5650;52.700;7.306;2022-07-10T01:05:30;8.38;;;1.65;;
11187;SDS011;5650;52.700;7.306;2022-07-10T01:07:57;10.30;;;2.00;;
11187;SDS011;5650;52.700;7.306;2022-07-10T01:10:25;9.80;;;1.92;;
11187;SDS011;5650;52.700;7.306;2022-07-10T01:13:02;14.35;;;2.85;;
11187;SDS011;5650;52.700;7.306;2022-07-10T01:15:30;11.20;;;2.60;;
11187;SDS011;5650;52.700;7.306;2022-07-10T01:18:02;8.38;;;2.17;;
11187;SDS011;5650;52.700;7.306;2022-07-10T01:20:32;9.07;;;2.20;;
11187;SDS011;5650;52.700;7.306;2022-07-10T01:23:01;6.38;;;2.05;;
11187;SDS011;5650;52.700;7.306;2022-07-10T01:25:29;9.25;;;2.50;;
11187;SDS011;5650;52.700;7.306;2022-07-10T01:27:58;11.23;;;2.63;;
11187;SDS011;5650;52.700;7.306;2022-07-10T01:30:32;12.07;;;2.40;;
11187;SDS011;5650;52.700;7.306;2022-07-10T01:32:59;14.00;;;3.60;;
11187;SDS011;5650;52.700;7.306;2022-07-10T01:35:26;6.63;;;2.13;;
11187;SDS011;5650;52.700;7.306;2022-07-10T01:37:53;12.35;;;2.35;;
11187;SDS011;5650;52.700;7.306;2022-07-10T01:40:22;10.52;;;2.08;;
11187;SDS011;5650;52.700;7.306;2022-07-10T01:42:55;10.50;;;1.92;;
11187;SDS011;5650;52.700;7.306;2022-07-10T01:45:22;8.23;;;2.35;;
11187;SDS011;5650;52.700;7.306;2022-07-10T01:47:49;10.23;;;2.10;;
11187;SDS011;5650;52.700;7.306;2022-07-10T01:50:16;7.07;;;1.80;;
11187;SDS011;5650;52.700;7.306;2022-07-10T01:53:03;7.32;;;2.17;;
11187;SDS011;5650;52.700;7.306;2022-07-10T01:55:38;10.10;;;2.53;;
11187;SDS011;5650;52.700;7.306;2022-07-10T01:58:05;10.95;;;2.05;;
11187;SDS011;5650;52.700;7.306;2022-07-10T02:00:32;9.05;;;2.00;;
11187;SDS011;5650;52.700;7.306;2022-07-10T02:02:59;7.53;;;2.00;;
11187;SDS011;5650;52.700;7.306;2022-07-10T02:05:47;9.52;;;2.13;;
11187;SDS011;5650;52.700;7.306;2022-07-10T02:08:23;6.65;;;1.80;;
11187;SDS011;5650;52.700;7.306;2022-07-10T02:10:58;7.50;;;1.85;;
11187;SDS011;5650;52.700;7.306;2022-07-10T02:13:28;11.32;;;2.20;;
11187;SDS011;5650;52.700;7.306;2022-07-10T02:15:57;10.55;;;2.80;;
11187;SDS011;5650;52.700;7.306;2022-07-10T02:18:25;6.65;;;1.80;;
11187;SDS011;5650;52.700;7.306;2022-07-10T02:20:54;7.97;;;2.10;;
11187;SDS011;5650;52.700;7.306;2022-07-10T02:23:24;10.10;;;2.15;;
11187;SDS011;5650;52.700;7.306;2022-07-10T02:26:05;7.88;;;1.80;;
11187;SDS011;5650;52.700;7.306;2022-07-10T02:28:32;10.05;;;2.22;;
11187;SDS011;5650;52.700;7.306;2022-07-10T02:31:02;6.40;;;1.45;;
11187;SDS011;5650;52.700;7.306;2022-07-10T02:33:31;8.88;;;2.42;;
11187;SDS011;5650;52.700;7.306;2022-07-10T02:36:11;10.30;;;2.63;;
11187;SDS011;5650;52.700;7.306;2022-07-10T02:38:41;7.65;;;2.20;;
11187;SDS011;5650;52.700;7.306;2022-07-10T02:41:13;9.20;;;2.50;;
11187;SDS011;5650;52.700;7.306;2022-07-10T02:43:46;8.75;;;2.20;;
11187;SDS011;5650;52.700;7.306;2022-07-10T02:46:13;10.68;;;2.03;;
11187;SDS011;5650;52.700;7.306;2022-07-10T02:48:40;6.15;;;2.13;;
11187;SDS011;5650;52.700;7.306;2022-07-10T02:51:07;11.88;;;2.22;;
11187;SDS011;5650;52.700;7.306;2022-07-10T02:53:35;8.88;;;2.65;;
11187;SDS011;5650;52.700;7.306;2022-07-10T02:56:02;12.10;;;2.00;;
11187;SDS011;5650;52.700;7.306;2022-07-10T02:58:33;7.57;;;2.13;;
11187;SDS011;5650;52.700;7.306;2022-07-10T03:01:01;11.70;;;2.28;;
11187;SDS011;5650;52.700;7.306;2022-07-10T03:03:28;9.73;;;2.33;;
11187;SDS011;5650;52.700;7.306;2022-07-10T03:05:55;10.43;;;2.25;;
11187;SDS011;5650;52.700;7.306;2022-07-10T03:08:25;8.85;;;1.80;;
11187;SDS011;5650;52.700;7.306;2022-07-10T03:10:52;9.80;;;2.42;;
11187;SDS011;5650;52.700;7.306;2022-07-10T03:13:29;10.75;;;2.20;;
11187;SDS011;5650;52.700;7.306;2022-07-10T03:15:58;12.43;;;2.13;;
11187;SDS011;5650;52.700;7.306;2022-07-10T03:18:25;10.63;;;2.30;;
11187;SDS011;5650;52.700;7.306;2022-07-10T03:21:04;7.43;;;1.80;;
11187;SDS011;5650;52.700;7.306;2022-07-10T03:23:31;9.55;;;1.92;;
11187;SDS011;5650;52.700;7.306;2022-07-10T03:26:00;7.15;;;2.15;;
11187;SDS011;5650;52.700;7.306;2022-07-10T03:28:28;11.38;;;2.30;;
11187;SDS011;5650;52.700;7.306;2022-07-10T03:30:58;10.60;;;1.88;;
11187;SDS011;5650;52.700;7.306;2022-07-10T03:33:25;10.25;;;2.10;;
11187;SDS011;5650;52.700;7.306;2022-07-10T03:35:52;10.27;;;2.42;;
11187;SDS011;5650;52.700;7.306;2022-07-10T03:38:26;13.20;;;2.58;;
11187;SDS011;5650;52.700;7.306;2022-07-10T03:40:53;14.93;;;2.47;;
11187;SDS011;5650;52.700;7.306;2022-07-10T03:43:20;14.10;;;2.50;;
11187;SDS011;5650;52.700;7.306;2022-07-10T03:45:50;11.68;;;2.17;;
11187;SDS011;5650;52.700;7.306;2022-07-10T03:48:19;10.88;;;2.33;;
11187;SDS011;5650;52.700;7.306;2022-07-10T03:50:48;10.23;;;1.98;;
11187;SDS011;5650;52.700;7.306;2022-07-10T03:53:16;5.50;;;1.60;;
11187;SDS011;5650;52.700;7.306;2022-07-10T03:55:43;12.55;;;2.33;;
11187;SDS011;5650;52.700;7.306;2022-07-10T03:58:13;9.32;;;2.05;;
11187;SDS011;5650;52.700;7.306;2022-07-10T04:00:42;8.73;;;2.10;;
11187;SDS011;5650;52.700;7.306;2022-07-10T04:03:12;11.70;;;2.30;;
11187;SDS011;5650;52.700;7.306;2022-07-10T04:05:41;16.17;;;2.83;;
11187;SDS011;5650;52.700;7.306;2022-07-10T04:08:14;11.93;;;2.35;;
11187;SDS011;5650;52.700;7.306;2022-07-10T04:10:41;15.82;;;2.67;;
11187;SDS011;5650;52.700;7.306;2022-07-10T04:13:11;8.95;;;1.88;;
11187;SDS011;5650;52.700;7.306;2022-07-10T04:15:38;10.15;;;2.08;;
11187;SDS011;5650;52.700;7.306;2022-07-10T04:18:20;8.73;;;2.00;;
11187;SDS011;5650;52.700;7.306;2022-07-10T04:20:49;9.95;;;2.30;;
11187;SDS011;5650;52.700;7.306;2022-07-10T04:23:16;8.95;;;2.00;;
11187;SDS011;5650;52.700;7.306;2022-07-10T04:25:43;11.32;;;2.33;;
11187;SDS011;5650;52.700;7.306;2022-07-10T04:28:13;7.55;;;2.08;;
11187;SDS011;5650;52.700;7.306;2022-07-10T04:30:40;11.02;;;2.28;;
11187;SDS011;5650;52.700;7.306;2022-07-10T04:33:13;10.82;;;2.30;;
11187;SDS011;5650;52.700;7.306;2022-07-10T04:38:21;9.57;;;2.33;;
11187;SDS011;5650;52.700;7.306;2022-07-10T04:40:50;11.25;;;2.40;;
11187;SDS011;5650;52.700;7.306;2022-07-10T04:43:18;10.30;;;2.50;;
11187;SDS011;5650;52.700;7.306;2022-07-10T04:45:48;7.30;;;1.92;;
11187;SDS011;5650;52.700;7.306;2022-07-10T04:48:15;8.98;;;2.08;;
11187;SDS011;5650;52.700;7.306;2022-07-10T04:50:42;6.38;;;1.70;;
11187;SDS011;5650;52.700;7.306;2022-07-10T04:53:13;10.02;;;2.25;;
11187;SDS011;5650;52.700;7.306;2022-07-10T04:55:40;10.18;;;1.88;;
11187;SDS011;5650;52.700;7.306;2022-07-10T04:58:07;10.75;;;2.50;;
11187;SDS011;5650;52.700;7.306;2022-07-10T05:00:38;7.43;;;1.90;;
11187;SDS011;5650;52.700;7.306;2022-07-10T05:03:05;9.40;;;2.20;;
11187;SDS011;5650;52.700;7.306;2022-07-10T05:05:32;9.38;;;2.25;;
11187;SDS011;5650;52.700;7.306;2022-07-10T05:07:59;9.93;;;2.00;;
11187;SDS011;5650;52.700;7.306;2022-07-10T05:10:37;15.20;;;2.33;;
11187;SDS011;5650;52.700;7.306;2022-07-10T05:13:05;9.70;;;2.30;;
11187;SDS011;5650;52.700;7.306;2022-07-10T05:15:35;7.65;;;2.03;;
11187;SDS011;5650;52.700;7.306;2022-07-10T05:18:08;9.88;;;2.17;;
11187;SDS011;5650;52.700;7.306;2022-07-10T05:20:35;8.60;;;2.03;;
11187;SDS011;5650;52.700;7.306;2022-07-10T05:23:06;10.77;;;2.30;;
11187;SDS011;5650;52.700;7.306;2022-07-10T05:25:33;7.55;;;1.63;;
11187;SDS011;5650;52.700;7.306;2022-07-10T05:28:04;9.27;;;1.95;;
11187;SDS011;5650;52.700;7.306;2022-07-10T05:30:34;8.82;;;1.70;;
11187;SDS011;5650;52.700;7.306;2022-07-10T05:33:04;9.32;;;1.90;;
11187;SDS011;5650;52.700;7.306;2022-07-10T05:35:34;11.75;;;2.17;;
11187;SDS011;5650;52.700;7.306;2022-07-10T05:38:04;5.88;;;1.67;;
11187;SDS011;5650;52.700;7.306;2022-07-10T05:40:31;7.57;;;1.77;;
11187;SDS011;5650;52.700;7.306;2022-07-10T05:42:58;5.38;;;1.70;;
11187;SDS011;5650;52.700;7.306;2022-07-10T05:45:27;8.02;;;1.90;;
11187;SDS011;5650;52.700;7.306;2022-07-10T05:47:54;10.40;;;2.08;;
11187;SDS011;5650;52.700;7.306;2022-07-10T05:50:29;8.65;;;1.63;;
11187;SDS011;5650;52.700;7.306;2022-07-10T05:52:57;8.48;;;1.90;;
11187;SDS011;5650;52.700;7.306;2022-07-10T05:55:24;9.68;;;2.10;;
11187;SDS011;5650;52.700;7.306;2022-07-10T05:57:51;6.53;;;1.83;;
11187;SDS011;5650;52.700;7.306;2022-07-10T06:00:22;8.88;;;1.75;;
11187;SDS011;5650;52.700;7.306;2022-07-10T06:02:51;11.43;;;2.08;;
11187;SDS011;5650;52.700;7.306;2022-07-10T06:05:18;9.52;;;1.77;;
11187;SDS011;5650;52.700;7.306;2022-07-10T06:07:45;7.93;;;1.80;;
11187;SDS011;5650;52.700;7.306;2022-07-10T06:10:15;11.10;;;2.15;;
11187;SDS011;5650;52.700;7.306;2022-07-10T06:12:45;7.22;;;2.00;;
11187;SDS011;5650;52.700;7.306;2022-07-10T06:15:13;6.65;;;1.92;;
11187;SDS011;5650;52.700;7.306;2022-07-10T06:17:40;7.68;;;2.03;;
11187;SDS011;5650;52.700;7.306;2022-07-10T06:20:09;9.38;;;2.15;;
11187;SDS011;5650;52.700;7.306;2022-07-10T06:22:37;9.70;;;2.28;;
11187;SDS011;5650;52.700;7.306;2022-07-10T06:25:05;9.15;;;2.42;;
11187;SDS011;5650;52.700;7.306;2022-07-10T06:27:37;11.57;;;2.30;;
11187;SDS011;5650;52.700;7.306;2022-07-10T06:30:16;9.07;;;1.60;;
11187;SDS011;5650;52.700;7.306;2022-07-10T06:32:43;11.82;;;2.08;;
11187;SDS011;5650;52.700;7.306;2022-07-10T06:35:14;7.05;;;1.77;;
11187;SDS011;5650;52.700;7.306;2022-07-10T06:37:47;10.73;;;2.42;;
11187;SDS011;5650;52.700;7.306;2022-07-10T06:40:14;9.73;;;2.00;;
11187;SDS011;5650;52.700;7.306;2022-07-10T06:42:43;10.38;;;1.90;;
11187;SDS011;5650;52.700;7.306;2022-07-10T06:45:13;9.13;;;2.25;;
11187;SDS011;5650;52.700;7.306;2022-07-10T06:47:43;12.05;;;2.22;;
11187;SDS011;5650;52.700;7.306;2022-07-10T06:50:27;9.02;;;2.10;;
11187;SDS011;5650;52.700;7.306;2022-07-10T06:52:56;9.45;;;2.17;;
11187;SDS011;5650;52.700;7.306;2022-07-10T06:55:23;7.68;;;1.80;;
11187;SDS011;5650;52.700;7.306;2022-07-10T06:57:52;11.95;;;2.40;;
11187;SDS011;5650;52.700;7.306;2022-07-10T07:00:20;11.23;;;2.38;;
11187;SDS011;5650;52.700;7.306;2022-07-10T07:02:50;12.23;;;2.42;;
11187;SDS011;5650;52.700;7.306;2022-07-10T07:05:17;13.52;;;2.33;;
11187;SDS011;5650;52.700;7.306;2022-07-10T07:07:49;14.95;;;2.42;;
11187;SDS011;5650;52.700;7.306;2022-07-10T07:10:16;8.52;;;1.98;;
11187;SDS011;5650;52.700;7.306;2022-07-10T07:12:52;14.25;;;2.42;;
11187;SDS011;5650;52.700;7.306;2022-07-10T07:15:25;12.40;;;2.42;;
11187;SDS011;5650;52.700;7.306;2022-07-10T07:17:52;9.13;;;1.83;;
11187;SDS011;5650;52.700;7.306;2022-07-10T07:20:41;8.23;;;2.35;;
11187;SDS011;5650;52.700;7.306;2022-07-10T07:23:28;8.60;;;2.05;;
11187;SDS011;5650;52.700;7.306;2022-07-10T07:25:55;7.03;;;1.90;;
11187;SDS011;5650;52.700;7.306;2022-07-10T07:28:22;13.35;;;2.50;;
11187;SDS011;5650;52.700;7.306;2022-07-10T07:30:49;10.70;;;2.28;;
11187;SDS011;5650;52.700;7.306;2022-07-10T07:33:16;7.78;;;1.92;;
11187;SDS011;5650;52.700;7.306;2022-07-10T07:35:43;8.10;;;2.03;;
11187;SDS011;5650;52.700;7.306;2022-07-10T07:38:11;12.10;;;2.05;;
11187;SDS011;5650;52.700;7.306;2022-07-10T07:40:40;10.50;;;2.08;;
11187;SDS011;5650;52.700;7.306;2022-07-10T07:43:07;10.25;;;2.47;;
11187;SDS011;5650;52.700;7.306;2022-07-10T07:45:34;7.00;;;2.03;;
11187;SDS011;5650;52.700;7.306;2022-07-10T07:48:01;10.45;;;2.42;;
11187;SDS011;5650;52.700;7.306;2022-07-10T07:50:29;9.38;;;2.30;;
11187;SDS011;5650;52.700;7.306;2022-07-10T07:52:58;9.88;;;2.20;;
11187;SDS011;5650;52.700;7.306;2022-07-10T07:55:26;7.20;;;1.73;;
11187;SDS011;5650;52.700;7.306;2022-07-10T07:57:56;11.27;;;2.33;;
11187;SDS011;5650;52.700;7.306;2022-07-10T08:00:23;7.75;;;2.03;;
11187;SDS011;5650;52.700;7.306;2022-07-10T08:02:52;8.45;;;2.45;;
11187;SDS011;5650;52.700;7.306;2022-07-10T08:05:20;11.98;;;2.35;;
11187;SDS011;5650;52.700;7.306;2022-07-10T08:07:50;10.93;;;2.20;;
11187;SDS011;5650;52.700;7.306;2022-07-10T08:10:19;8.65;;;2.25;;
11187;SDS011;5650;52.700;7.306;2022-07-10T08:12:47;7.18;;;1.85;;
11187;SDS011;5650;52.700;7.306;2022-07-10T08:15:17;5.75;;;1.70;;
11187;SDS011;5650;52.700;7.306;2022-07-10T08:17:47;10.60;;;2.30;;
11187;SDS011;5650;52.700;7.306;2022-07-10T08:20:14;7.80;;;1.77;;
11187;SDS011;5650;52.700;7.306;2022-07-10T08:22:42;12.93;;;2.10;;
11187;SDS011;5650;52.700;7.306;2022-07-10T08:25:10;10.82;;;2.13;;
11187;SDS011;5650;52.700;7.306;2022-07-10T08:27:37;10.57;;;2.28;;
11187;SDS011;5650;52.700;7.306;2022-07-10T08:30:05;7.10;;;2.10;;
11187;SDS011;5650;52.700;7.306;2022-07-10T08:32:35;6.22;;;2.00;;
11187;SDS011;5650;52.700;7.306;2022-07-10T08:35:03;11.45;;;2.45;;
11187;SDS011;5650;52.700;7.306;2022-07-10T08:37:38;6.00;;;1.85;;
11187;SDS011;5650;52.700;7.306;2022-07-10T08:40:06;9.68;;;2.03;;
11187;SDS011;5650;52.700;7.306;2022-07-10T08:42:36;8.40;;;1.90;;
11187;SDS011;5650;52.700;7.306;2022-07-10T08:45:03;7.38;;;1.73;;
11187;SDS011;5650;52.700;7.306;2022-07-10T08:47:38;8.77;;;2.38;;
11187;SDS011;5650;52.700;7.306;2022-07-10T08:50:07;6.95;;;1.75;;
11187;SDS011;5650;52.700;7.306;2022-07-10T08:52:52;5.13;;;1.70;;
11187;SDS011;5650;52.700;7.306;2022-07-10T08:55:31;6.03;;;1.67;;
11187;SDS011;5650;52.700;7.306;2022-07-10T08:58:01;5.10;;;1.50;;
11187;SDS011;5650;52.700;7.306;2022-07-10T09:00:30;4.95;;;1.52;;
11187;SDS011;5650;52.700;7.306;2022-07-10T09:02:59;4.00;;;1.40;;
11187;SDS011;5650;52.700;7.306;2022-07-10T09:05:26;3.97;;;1.50;;
11187;SDS011;5650;52.700;7.306;2022-07-10T09:07:53;4.57;;;1.60;;
11187;SDS011;5650;52.700;7.306;2022-07-10T09:10:23;9.07;;;1.70;;
11187;SDS011;5650;52.700;7.306;2022-07-10T09:12:55;7.20;;;1.98;;
11187;SDS011;5650;52.700;7.306;2022-07-10T09:15:23;9.93;;;1.60;;
11187;SDS011;5650;52.700;7.306;2022-07-10T09:17:55;8.68;;;1.35;;
11187;SDS011;5650;52.700;7.306;2022-07-10T09:20:28;5.55;;;1.50;;
11187;SDS011;5650;52.700;7.306;2022-07-10T09:23:00;4.10;;;1.00;;
11187;SDS011;5650;52.700;7.306;2022-07-10T09:25:39;3.33;;;1.15;;
11187;SDS011;5650;52.700;7.306;2022-07-10T09:28:06;6.47;;;1.63;;
11187;SDS011;5650;52.700;7.306;2022-07-10T09:30:34;6.20;;;1.58;;
11187;SDS011;5650;52.700;7.306;2022-07-10T09:36:00;6.82;;;1.42;;
11187;SDS011;5650;52.700;7.306;2022-07-10T09:38:51;5.93;;;1.60;;
11187;SDS011;5650;52.700;7.306;2022-07-10T09:41:26;5.88;;;1.73;;
11187;SDS011;5650;52.700;7.306;2022-07-10T09:43:58;5.15;;;1.50;;
11187;SDS011;5650;52.700;7.306;2022-07-10T09:46:32;7.65;;;1.70;;
11187;SDS011;5650;52.700;7.306;2022-07-10T09:49:02;4.80;;;1.08;;
11187;SDS011;5650;52.700;7.306;2022-07-10T09:51:38;5.18;;;1.38;;
11187;SDS011;5650;52.700;7.306;2022-07-10T09:54:07;7.72;;;1.55;;
11187;SDS011;5650;52.700;7.306;2022-07-10T09:56:46;4.82;;;1.20;;
11187;SDS011;5650;52.700;7.306;2022-07-10T09:59:17;6.40;;;1.25;;
11187;SDS011;5650;52.700;7.306;2022-07-10T10:01:55;4.28;;;1.15;;
11187;SDS011;5650;52.700;7.306;2022-07-10T10:04:24;2.35;;;0.90;;
11187;SDS011;5650;52.700;7.306;2022-07-10T10:06:57;1.85;;;0.93;;
11187;SDS011;5650;52.700;7.306;2022-07-10T10:09:26;1.95;;;0.70;;
11187;SDS011;5650;52.700;7.306;2022-07-10T10:12:05;3.10;;;1.23;;
11187;SDS011;5650;52.700;7.306;2022-07-10T10:14:41;3.83;;;0.70;;
11187;SDS011;5650;52.700;7.306;2022-07-10T10:17:12;2.20;;;0.70;;
11187;SDS011;5650;52.700;7.306;2022-07-10T10:19:42;2.40;;;0.82;;
11187;SDS011;5650;52.700;7.306;2022-07-10T10:22:33;1.52;;;0.50;;
11187;SDS011;5650;52.700;7.306;2022-07-10T10:25:08;3.20;;;0.68;;
11187;SDS011;5650;52.700;7.306;2022-07-10T10:27:36;0.88;;;0.43;;
11187;SDS011;5650;52.700;7.306;2022-07-10T10:30:04;2.08;;;0.50;;
11187;SDS011;5650;52.700;7.306;2022-07-10T10:32:32;2.42;;;0.50;;
11187;SDS011;5650;52.700;7.306;2022-07-10T10:34:59;3.03;;;0.55;;
11187;SDS011;5650;52.700;7.306;2022-07-10T10:37:34;1.35;;;0.40;;
11187;SDS011;5650;52.700;7.306;2022-07-10T10:40:05;1.08;;;0.50;;
11187;SDS011;5650;52.700;7.306;2022-07-10T10:42:36;1.17;;;0.50;;
11187;SDS011;5650;52.700;7.306;2022-07-10T10:48:04;1.27;;;0.40;;
11187;SDS011;5650;52.700;7.306;2022-07-10T10:50:37;0.95;;;0.40;;
11187;SDS011;5650;52.700;7.306;2022-07-10T10:53:14;2.03;;;0.60;;
11187;SDS011;5650;52.700;7.306;2022-07-10T10:58:46;1.00;;;0.40;;
11187;SDS011;5650;52.700;7.306;2022-07-10T11:01:23;1.58;;;0.52;;
11187;SDS011;5650;52.700;7.306;2022-07-10T11:06:58;2.05;;;0.70;;
11187;SDS011;5650;52.700;7.306;2022-07-10T11:09:27;2.60;;;0.60;;
11187;SDS011;5650;52.700;7.306;2022-07-10T11:11:59;2.03;;;0.77;;
11187;SDS011;5650;52.700;7.306;2022-07-10T11:14:27;3.53;;;0.95;;
11187;SDS011;5650;52.700;7.306;2022-07-10T11:16:55;2.47;;;0.60;;
11187;SDS011;5650;52.700;7.306;2022-07-10T11:19:23;3.67;;;0.90;;
11187;SDS011;5650;52.700;7.306;2022-07-10T11:24:58;4.35;;;1.00;;
11187;SDS011;5650;52.700;7.306;2022-07-10T11:27:36;5.15;;;1.15;;
11187;SDS011;5650;52.700;7.306;2022-07-10T11:30:18;1.20;;;0.70;;
11187;SDS011;5650;52.700;7.306;2022-07-10T11:32:51;0.98;;;0.63;;
11187;SDS011;5650;52.700;7.306;2022-07-10T11:35:21;2.20;;;0.85;;
11187;SDS011;5650;52.700;7.306;2022-07-10T11:37:49;2.80;;;0.90;;
11187;SDS011;5650;52.700;7.306;2022-07-10T11:40:19;1.42;;;0.57;;
11187;SDS011;5650;52.700;7.306;2022-07-10T11:42:47;1.63;;;0.80;;
11187;SDS011;5650;52.700;7.306;2022-07-10T11:45:26;1.58;;;0.50;;
11187;SDS011;5650;52.700;7.306;2022-07-10T11:47:54;1.23;;;0.40;;
11187;SDS011;5650;52.700;7.306;2022-07-10T11:50:22;1.02;;;0.70;;
11187;SDS011;5650;52.700;7.306;2022-07-10T11:52:55;1.70;;;0.70;;
11187;SDS011;5650;52.700;7.306;2022-07-10T11:55:27;1.75;;;0.68;;
11187;SDS011;5650;52.700;7.306;2022-07-10T11:57:57;1.67;;;0.70;;
11187;SDS011;5650;52.700;7.306;2022-07-10T12:00:24;1.02;;;0.50;;
11187;SDS011;5650;52.700;7.306;2022-07-10T12:02:52;1.17;;;0.50;;
11187;SDS011;5650;52.700;7.306;2022-07-10T12:05:30;2.05;;;0.60;;
11187;SDS011;5650;52.700;7.306;2022-07-10T12:07:57;1.05;;;0.55;;
11187;SDS011;5650;52.700;7.306;2022-07-10T12:10:30;2.10;;;0.30;;
11187;SDS011;5650;52.700;7.306;2022-07-10T12:13:05;0.98;;;0.40;;
11187;SDS011;5650;52.700;7.306;2022-07-10T12:15:34;0.80;;;0.40;;
11187;SDS011;5650;52.700;7.306;2022-07-10T12:18:05;3.25;;;0.82;;
11187;SDS011;5650;52.700;7.306;2022-07-10T12:20:33;1.08;;;0.40;;
11187;SDS011;5650;52.700;7.306;2022-07-10T12:23:02;0.55;;;0.30;;
11187;SDS011;5650;52.700;7.306;2022-07-10T12:25:31;0.98;;;0.43;;
11187;SDS011;5650;52.700;7.306;2022-07-10T12:27:58;1.30;;;0.57;;
11187;SDS011;5650;52.700;7.306;2022-07-10T12:30:41;1.25;;;0.70;;
11187;SDS011;5650;52.700;7.306;2022-07-10T12:33:11;1.30;;;0.60;;
11187;SDS011;5650;52.700;7.306;2022-07-10T12:35:50;1.15;;;0.50;;
11187;SDS011;5650;52.700;7.306;2022-07-10T12:38:20;0.95;;;0.55;;
11187;SDS011;5650;52.700;7.306;2022-07-10T12:40:49;2.15;;;0.60;;
11187;SDS011;5650;52.700;7.306;2022-07-10T12:43:24;1.00;;;0.70;;
11187;SDS011;5650;52.700;7.306;2022-07-10T12:46:07;2.30;;;0.70;;
11187;SDS011;5650;52.700;7.306;2022-07-10T12:48:35;1.30;;;0.85;;
11187;SDS011;5650;52.700;7.306;2022-07-10T12:51:22;2.45;;;1.00;;
11187;SDS011;5650;52.700;7.306;2022-07-10T12:53:49;2.85;;;1.05;;
11187;SDS011;5650;52.700;7.306;2022-07-10T12:56:32;4.00;;;1.27;;
11187;SDS011;5650;52.700;7.306;2022-07-10T12:59:01;4.40;;;1.30;;
11187;SDS011;5650;52.700;7.306;2022-07-10T13:01:38;4.00;;;1.23;;
11187;SDS011;5650;52.700;7.306;2022-07-10T13:04:07;2.80;;;1.00;;
11187;SDS011;5650;52.700;7.306;2022-07-10T13:06:35;1.83;;;0.82;;
11187;SDS011;5650;52.700;7.306;2022-07-10T13:09:17;3.78;;;1.20;;
11187;SDS011;5650;52.700;7.306;2022-07-10T13:11:51;3.83;;;0.95;;
11187;SDS011;5650;52.700;7.306;2022-07-10T13:14:19;3.70;;;1.10;;
11187;SDS011;5650;52.700;7.306;2022-07-10T13:16:52;2.70;;;0.93;;
11187;SDS011;5650;52.700;7.306;2022-07-10T13:19:28;2.33;;;0.90;;
11187;SDS011;5650;52.700;7.306;2022-07-10T13:21:55;3.80;;;0.93;;
11187;SDS011;5650;52.700;7.306;2022-07-10T13:24:25;2.85;;;1.42;;
11187;SDS011;5650;52.700;7.306;2022-07-10T13:26:54;2.25;;;1.10;;
11187;SDS011;5650;52.700;7.306;2022-07-10T13:29:22;2.80;;;1.20;;
11187;SDS011;5650;52.700;7.306;2022-07-10T13:31:49;3.47;;;1.30;;
11187;SDS011;5650;52.700;7.306;2022-07-10T13:34:16;2.38;;;1.05;;
11187;SDS011;5650;52.700;7.306;2022-07-10T13:36:53;4.25;;;1.35;;
11187;SDS011;5650;52.700;7.306;2022-07-10T13:39:23;2.45;;;1.27;;
11187;SDS011;5650;52.700;7.306;2022-07-10T13:41:50;4.90;;;1.40;;
11187;SDS011;5650;52.700;7.306;2022-07-10T13:44:19;3.83;;;1.10;;
11187;SDS011;5650;52.700;7.306;2022-07-10T13:46:49;4.25;;;1.30;;
11187;SDS011;5650;52.700;7.306;2022-07-10T13:49:19;3.08;;;1.13;;
11187;SDS011;5650;52.700;7.306;2022-07-10T13:51:47;3.17;;;1.50;;
11187;SDS011;5650;52.700;7.306;2022-07-10T13:54:20;3.40;;;1.25;;
11187;SDS011;5650;52.700;7.306;2022-07-10T13:56:47;3.50;;;1.25;;
11187;SDS011;5650;52.700;7.306;2022-07-10T13:59:14;2.22;;;1.10;;
11187;SDS011;5650;52.700;7.306;2022-07-10T14:01:43;3.90;;;1.40;;
11187;SDS011;5650;52.700;7.306;2022-07-10T14:04:13;3.50;;;1.25;;
11187;SDS011;5650;52.700;7.306;2022-07-10T14:06:46;6.72;;;1.70;;
11187;SDS011;5650;52.700;7.306;2022-07-10T14:09:13;2.90;;;1.30;;
11187;SDS011;5650;52.700;7.306;2022-07-10T14:11:40;5.03;;;1.10;;
11187;SDS011;5650;52.700;7.306;2022-07-10T14:14:10;3.60;;;1.40;;
11187;SDS011;5650;52.700;7.306;2022-07-10T14:16:45;6.65;;;1.55;;
11187;SDS011;5650;52.700;7.306;2022-07-10T14:19:17;3.00;;;1.30;;
11187;SDS011;5650;52.700;7.306;2022-07-10T14:21:44;3.03;;;1.10;;
11187;SDS011;5650;52.700;7.306;2022-07-10T14:24:14;3.58;;;1.20;;
11187;SDS011;5650;52.700;7.306;2022-07-10T14:26:51;3.97;;;1.35;;
11187;SDS011;5650;52.700;7.306;2022-07-10T14:29:24;4.13;;;1.48;;
11187;SDS011;5650;52.700;7.306;2022-07-10T14:31:55;4.32;;;1.33;;
11187;SDS011;5650;52.700;7.306;2022-07-10T14:34:23;3.53;;;1.00;;
11187;SDS011;5650;52.700;7.306;2022-07-10T14:36:50;2.88;;;1.27;;
11187;SDS011;5650;52.700;7.306;2022-07-10T14:39:20;5.68;;;1.75;;
11187;SDS011;5650;52.700;7.306;2022-07-10T14:41:47;2.83;;;1.33;;
11187;SDS011;5650;52.700;7.306;2022-07-10T14:44:14;5.82;;;1.70;;
11187;SDS011;5650;52.700;7.306;2022-07-10T14:46:41;12.30;;;1.90;;
11187;SDS011;5650;52.700;7.306;2022-07-10T14:49:10;8.38;;;1.60;;
11187;SDS011;5650;52.700;7.306;2022-07-10T14:51:40;4.75;;;1.60;;
11187;SDS011;5650;52.700;7.306;2022-07-10T14:54:07;1.85;;;0.80;;
11187;SDS011;5650;52.700;7.306;2022-07-10T14:56:38;2.17;;;1.08;;
11187;SDS011;5650;52.700;7.306;2022-07-10T14:59:09;3.25;;;1.15;;
11187;SDS011;5650;52.700;7.306;2022-07-10T15:01:38;2.63;;;0.88;;
11187;SDS011;5650;52.700;7.306;2022-07-10T15:04:13;1.98;;;0.95;;
11187;SDS011;5650;52.700;7.306;2022-07-10T15:06:40;3.42;;;0.90;;
11187;SDS011;5650;52.700;7.306;2022-07-10T15:09:07;2.47;;;1.17;;
11187;SDS011;5650;52.700;7.306;2022-07-10T15:11:36;1.23;;;0.90;;
11187;SDS011;5650;52.700;7.306;2022-07-10T15:14:04;2.20;;;1.00;;
11187;SDS011;5650;52.700;7.306;2022-07-10T15:16:32;3.00;;;1.10;;
11187;SDS011;5650;52.700;7.306;2022-07-10T15:18:59;3.72;;;1.10;;
11187;SDS011;5650;52.700;7.306;2022-07-10T15:21:28;2.08;;;0.90;;
11187;SDS011;5650;52.700;7.306;2022-07-10T15:23:56;2.13;;;0.63;;
11187;SDS011;5650;52.700;7.306;2022-07-10T15:26:32;1.60;;;0.73;;
11187;SDS011;5650;52.700;7.306;2022-07-10T15:28:59;2.70;;;0.90;;
11187;SDS011;5650;52.700;7.306;2022-07-10T15:31:28;4.07;;;0.95;;
11187;SDS011;5650;52.700;7.306;2022-07-10T15:33:58;3.03;;;0.98;;